Nesenie raksti

Ziņas

Par Gliding.lv

Gliding.lv ir interneta vietne par planieriem un planierismu. Šeit būs atrodama informācija par iespējām pamēģināt, iesaistīties un organizēt planierisma aktivitātes. Izmanto Gliding.lv forumu, ja Tev ir kāda tēma diskusijai vai jautājums. Gliding.lv merķis ir informēt un apvienot planierisma interesentus, nodrošinot un apmainoties ar aktuālāko un arī bijušo. Lidojam!

Laiks Rīgā
6°
overcast clouds
mitrums: 87%
vējš: 4m/s RZR
Aug 2 • Zem 1
9°
Ses
7°
Svē
5°
Pir
2°
Otr
Meteo-dati no OpenWeatherMap

METAR

EVRA 212320Z 30007KT 250V350 9999 OVC013 08/06 Q1018 R36/290195 NOSIG

EVLA 212320Z AUTO 28009KT 9999 FEW022/// BKN025/// BKN038/// 06/05 Q1022

EVVA 212320Z AUTO 34011KT CAVOK 05/04 Q1022

Nesenie raksti

Pāriet uz rīkjoslu